createdAt,value
2023-06-17T00:01:06.641Z,98.86
2023-06-17T00:03:33.493Z,98.02
2023-06-17T00:06:00.125Z,98.11
2023-06-17T00:08:26.629Z,97.59
2023-06-17T00:10:53.089Z,97.89
2023-06-17T00:13:19.610Z,98.33
2023-06-17T00:15:47.435Z,98.40
2023-06-17T00:18:14.765Z,98.76
2023-06-17T00:20:41.407Z,98.71
2023-06-17T00:23:09.085Z,98.23
2023-06-17T00:25:35.809Z,98.12
2023-06-17T00:28:02.258Z,98.22
2023-06-17T00:30:28.713Z,97.44
2023-06-17T00:32:55.762Z,98.04
2023-06-17T00:35:22.676Z,97.78
2023-06-17T00:37:49.483Z,98.03
2023-06-17T00:40:16.058Z,97.98
2023-06-17T00:42:42.629Z,97.97
2023-06-17T00:45:09.501Z,97.46
2023-06-17T00:47:36.171Z,97.90
2023-06-17T00:50:03.985Z,97.71
2023-06-17T00:52:42.013Z,97.74
2023-06-17T00:55:11.629Z,97.83
2023-06-17T00:57:39.566Z,97.28
2023-06-17T01:00:07.980Z,97.57
2023-06-17T01:02:34.840Z,98.24
2023-06-17T01:05:01.611Z,98.09
2023-06-17T01:08:07.333Z,98.00
2023-06-17T01:10:33.792Z,98.57
2023-06-17T01:13:04.414Z,98.92
2023-06-17T01:15:33.905Z,98.97
2023-06-17T01:18:01.469Z,98.49
2023-06-17T01:20:28.793Z,98.86
2023-06-17T01:22:56.875Z,99.21
2023-06-17T01:25:23.832Z,99.20
2023-06-17T01:27:50.572Z,99.05
2023-06-17T01:30:17.299Z,98.96
2023-06-17T01:32:43.942Z,99.30
2023-06-17T01:35:19.557Z,98.28
2023-06-17T01:37:55.412Z,98.35
2023-06-17T01:40:24.551Z,98.48
2023-06-17T01:42:54.122Z,98.83
2023-06-17T01:45:22.042Z,98.83
2023-06-17T01:47:48.952Z,99.34
2023-06-17T01:50:15.496Z,99.06
2023-06-17T01:52:42.511Z,99.05
2023-06-17T01:55:09.228Z,99.26
2023-06-17T01:57:36.883Z,98.87
2023-06-17T02:00:04.049Z,98.69
2023-06-17T02:02:30.598Z,98.62
2023-06-17T02:04:57.533Z,98.95
2023-06-17T02:07:24.098Z,99.12
2023-06-17T02:09:50.828Z,99.26
2023-06-17T02:12:19.267Z,99.43
2023-06-17T02:14:45.895Z,99.59
2023-06-17T02:17:12.428Z,99.48
2023-06-17T02:19:39.366Z,99.00
2023-06-17T02:22:06.153Z,99.74
2023-06-17T02:24:34.442Z,99.02
2023-06-17T02:27:01.189Z,98.95
2023-06-17T02:29:28.847Z,98.51
2023-06-17T02:31:55.453Z,99.67
2023-06-17T02:34:22.059Z,98.82
2023-06-17T02:36:48.580Z,99.91
2023-06-17T02:39:15.335Z,98.93
2023-06-17T02:41:42.444Z,99.53
2023-06-17T02:44:09.040Z,99.72
2023-06-17T02:46:35.841Z,100.00
2023-06-17T02:49:02.808Z,99.05
2023-06-17T02:51:29.512Z,99.48
2023-06-17T02:53:56.188Z,99.10
2023-06-17T02:56:23.201Z,98.99
2023-06-17T02:58:49.618Z,99.41
2023-06-17T03:01:16.134Z,99.42
2023-06-17T03:03:42.662Z,99.24
2023-06-17T03:06:09.832Z,100.00
2023-06-17T03:08:40.409Z,99.64
2023-06-17T03:11:07.267Z,100.00
2023-06-17T03:13:34.938Z,99.45
2023-06-17T03:16:01.657Z,99.07
2023-06-17T03:18:28.498Z,99.38
2023-06-17T03:20:55.528Z,99.36
2023-06-17T03:23:22.188Z,99.14
2023-06-17T03:25:50.341Z,99.13
2023-06-17T03:28:17.583Z,99.23
2023-06-17T03:30:44.469Z,99.28
2023-06-17T03:33:11.475Z,99.61
2023-06-17T03:35:39.345Z,99.54
2023-06-17T03:38:06.017Z,99.03
2023-06-17T03:40:33.100Z,99.63
2023-06-17T03:42:59.923Z,99.17
2023-06-17T03:45:26.434Z,99.25
2023-06-17T03:47:52.898Z,99.92
2023-06-17T03:50:19.895Z,100.00
2023-06-17T03:52:46.651Z,99.37
2023-06-17T03:55:13.797Z,100.00
2023-06-17T03:57:40.439Z,100.00
2023-06-17T04:00:07.526Z,99.76
2023-06-17T04:02:34.039Z,99.61
2023-06-17T04:05:00.601Z,99.98
2023-06-17T04:07:27.417Z,100.00
2023-06-17T04:10:05.812Z,99.33
2023-06-17T04:12:33.595Z,98.42
2023-06-17T04:15:01.142Z,99.44
2023-06-17T04:17:27.736Z,99.98
2023-06-17T04:19:54.457Z,99.99
2023-06-17T04:22:21.066Z,100.00
2023-06-17T04:24:48.651Z,99.46
2023-06-17T04:27:15.421Z,100.00
2023-06-17T04:29:42.009Z,100.00
2023-06-17T04:32:09.014Z,100.00
2023-06-17T04:34:35.573Z,99.85
2023-06-17T04:37:02.353Z,100.00
2023-06-17T04:39:29.299Z,99.83
2023-06-17T04:41:55.730Z,99.71
2023-06-17T04:44:22.546Z,100.00
2023-06-17T04:46:49.111Z,99.98
2023-06-17T04:49:16.880Z,100.00
2023-06-17T04:51:43.650Z,99.98
2023-06-17T04:54:10.216Z,99.48
2023-06-17T04:56:36.692Z,99.31
2023-06-17T04:59:03.291Z,99.59
2023-06-17T05:01:30.108Z,99.28
2023-06-17T05:03:56.697Z,99.60
2023-06-17T05:06:23.464Z,99.62
2023-06-17T05:08:50.665Z,99.23
2023-06-17T05:11:17.623Z,99.53
2023-06-17T05:13:44.436Z,98.98
2023-06-17T05:16:10.973Z,98.47
2023-06-17T05:18:37.841Z,97.69
2023-06-17T05:21:05.161Z,96.89
2023-06-17T05:23:31.714Z,97.57
2023-06-17T05:25:58.202Z,97.37
2023-06-17T05:28:24.684Z,98.15
2023-06-17T05:30:51.306Z,97.56
2023-06-17T05:33:19.023Z,98.14
2023-06-17T05:35:46.138Z,96.94
2023-06-17T05:38:12.923Z,97.74
2023-06-17T05:40:39.430Z,96.56
2023-06-17T05:43:05.967Z,95.74
2023-06-17T05:45:32.779Z,96.80
2023-06-17T05:47:59.345Z,96.08
2023-06-17T05:50:26.171Z,96.43
2023-06-17T05:52:52.831Z,96.29
2023-06-17T05:55:19.618Z,97.03
2023-06-17T05:57:46.168Z,95.28
2023-06-17T06:00:13.322Z,94.66
2023-06-17T06:02:40.048Z,95.81
2023-06-17T06:05:07.446Z,94.93
2023-06-17T06:07:34.024Z,95.04
2023-06-17T06:10:00.536Z,94.50
2023-06-17T06:12:28.657Z,94.28
2023-06-17T06:14:56.455Z,94.62
2023-06-17T06:17:23.315Z,93.89
2023-06-17T06:19:49.877Z,94.32
2023-06-17T06:22:16.443Z,92.71
2023-06-17T06:24:43.299Z,93.53
2023-06-17T06:27:09.778Z,94.89
2023-06-17T06:29:36.613Z,93.10
2023-06-17T06:32:04.518Z,93.17
2023-06-17T06:34:31.401Z,92.78
2023-06-17T06:36:57.818Z,94.08
2023-06-17T06:39:24.988Z,92.50
2023-06-17T06:41:52.014Z,92.37
2023-06-17T06:44:19.053Z,92.38
2023-06-17T06:46:46.464Z,92.19
2023-06-17T06:49:13.114Z,91.94
2023-06-17T06:51:40.522Z,91.82
2023-06-17T06:54:07.064Z,91.31
2023-06-17T06:56:33.640Z,90.39
2023-06-17T06:59:00.406Z,92.49
2023-06-17T07:01:28.032Z,92.75
2023-06-17T07:03:54.641Z,91.00
2023-06-17T07:06:21.168Z,90.57
2023-06-17T07:08:49.152Z,90.42
2023-06-17T07:11:18.279Z,91.53
2023-06-17T07:13:45.089Z,90.59
2023-06-17T07:16:14.016Z,90.62
2023-06-17T07:18:40.564Z,92.19
2023-06-17T07:21:07.419Z,92.25
2023-06-17T07:23:33.950Z,91.60
2023-06-17T07:26:00.803Z,91.51
2023-06-17T07:28:27.351Z,91.93
2023-06-17T07:30:53.887Z,90.16
2023-06-17T07:33:20.804Z,90.94
2023-06-17T07:35:48.376Z,91.55
2023-06-17T07:38:15.047Z,91.52
2023-06-17T07:40:41.539Z,88.87
2023-06-17T07:43:09.032Z,89.74
2023-06-17T07:45:35.774Z,90.59
2023-06-17T07:48:02.569Z,90.55
2023-06-17T07:50:29.721Z,91.77
2023-06-17T07:52:56.329Z,90.60
2023-06-17T07:55:22.844Z,90.71
2023-06-17T07:57:49.746Z,91.27
2023-06-17T08:00:16.744Z,90.75
2023-06-17T08:02:44.337Z,90.87
2023-06-17T08:05:11.389Z,90.90
2023-06-17T08:07:38.260Z,90.96
2023-06-17T08:10:07.356Z,91.94
2023-06-17T08:12:36.245Z,90.73
2023-06-17T08:15:03.068Z,90.23
2023-06-17T08:17:29.799Z,90.04
2023-06-17T08:19:56.875Z,90.12
2023-06-17T08:22:23.388Z,90.84
2023-06-17T08:24:49.935Z,90.78
2023-06-17T08:27:16.770Z,89.88
2023-06-17T08:29:43.659Z,91.50
2023-06-17T08:32:10.018Z,90.00
2023-06-17T08:34:36.522Z,88.68
2023-06-17T08:37:03.110Z,89.00
2023-06-17T08:39:31.689Z,88.60
2023-06-17T08:41:58.555Z,89.30
2023-06-17T08:44:26.119Z,89.62
2023-06-17T08:46:54.723Z,89.50
2023-06-17T08:49:22.523Z,89.37
2023-06-17T08:51:52.317Z,87.09
2023-06-17T08:54:20.589Z,87.98
2023-06-17T08:56:47.450Z,83.88
2023-06-17T08:59:13.834Z,84.62
2023-06-17T09:01:43.651Z,83.83
2023-06-17T09:04:10.877Z,83.96
2023-06-17T09:06:37.292Z,85.73
2023-06-17T09:09:04.558Z,85.35
2023-06-17T09:11:32.362Z,85.88
2023-06-17T09:14:01.706Z,84.95
2023-06-17T09:16:37.261Z,86.36
2023-06-17T09:19:06.217Z,85.33
2023-06-17T09:21:33.145Z,84.52
2023-06-17T09:24:00.695Z,85.71
2023-06-17T09:26:30.926Z,84.38
2023-06-17T09:29:09.007Z,84.84
2023-06-17T09:31:55.163Z,83.84
2023-06-17T09:34:22.917Z,82.94
2023-06-17T09:37:02.131Z,83.75
2023-06-17T09:39:31.245Z,83.73
2023-06-17T09:41:58.188Z,84.44
2023-06-17T09:44:25.293Z,84.01
2023-06-17T09:46:51.980Z,83.13
2023-06-17T09:49:22.176Z,83.41
2023-06-17T09:51:49.231Z,83.74
2023-06-17T09:54:16.220Z,83.15
2023-06-17T09:56:43.815Z,79.19
2023-06-17T09:59:11.184Z,80.94
2023-06-17T10:01:37.798Z,82.57
2023-06-17T10:04:04.597Z,83.19
2023-06-17T10:06:32.404Z,81.82
2023-06-17T10:08:59.679Z,83.16
2023-06-17T10:11:28.607Z,81.66
2023-06-17T10:14:03.471Z,82.10
2023-06-17T10:16:35.164Z,84.95
2023-06-17T10:19:05.071Z,82.23
2023-06-17T10:21:35.120Z,80.96
2023-06-17T10:24:03.843Z,79.18
2023-06-17T10:26:30.502Z,79.89
2023-06-17T10:29:05.212Z,78.75
2023-06-17T10:31:33.732Z,78.97
2023-06-17T10:34:03.554Z,76.81
2023-06-17T10:36:33.477Z,76.93
2023-06-17T10:39:10.116Z,78.85
2023-06-17T10:41:39.735Z,77.39
2023-06-17T10:44:21.241Z,74.46
2023-06-17T10:46:51.228Z,77.48
2023-06-17T10:49:18.789Z,73.51
2023-06-17T10:51:57.825Z,76.27
2023-06-17T10:54:32.639Z,74.59
2023-06-17T10:57:02.453Z,72.13
2023-06-17T10:59:30.886Z,73.08
2023-06-17T11:02:08.574Z,70.14
2023-06-17T11:04:36.528Z,70.87
2023-06-17T11:07:03.995Z,69.99
2023-06-17T11:09:31.317Z,72.05
2023-06-17T11:11:58.882Z,72.59
2023-06-17T11:14:33.985Z,67.79
2023-06-17T11:17:00.835Z,69.62
2023-06-17T11:19:27.718Z,65.06
2023-06-17T11:21:58.656Z,62.40
2023-06-17T11:24:26.961Z,62.75
2023-06-17T11:26:54.041Z,60.32
2023-06-17T11:29:21.052Z,62.20
2023-06-17T11:31:47.904Z,58.86
2023-06-17T11:34:14.638Z,62.66
2023-06-17T11:36:42.836Z,60.05
2023-06-17T11:39:09.492Z,55.54
2023-06-17T11:41:37.494Z,58.24
2023-06-17T11:44:04.545Z,56.25
2023-06-17T11:46:31.356Z,59.30
2023-06-17T11:48:58.284Z,60.39
2023-06-17T11:51:24.901Z,54.83
2023-06-17T11:53:51.303Z,57.62
2023-06-17T11:56:19.607Z,58.82
2023-06-17T11:58:46.358Z,61.53
2023-06-17T12:01:14.644Z,59.77
2023-06-17T12:03:48.077Z,61.46
2023-06-17T12:06:19.436Z,64.21
2023-06-17T12:08:46.196Z,64.76
2023-06-17T12:11:29.870Z,66.08
2023-06-17T12:13:56.765Z,67.69
2023-06-17T12:16:34.664Z,69.00
2023-06-17T12:19:03.190Z,68.90
2023-06-17T12:21:30.299Z,70.19
2023-06-17T12:23:57.930Z,71.61
2023-06-17T12:26:25.254Z,71.46
2023-06-17T12:28:52.613Z,71.80
2023-06-17T12:31:23.132Z,72.72
2023-06-17T12:33:50.318Z,74.43
2023-06-17T12:36:17.634Z,75.94
2023-06-17T12:38:45.758Z,77.50
2023-06-17T12:41:12.252Z,78.70
2023-06-17T12:43:39.011Z,80.75
2023-06-17T12:46:06.158Z,79.22
2023-06-17T12:48:34.561Z,81.39
2023-06-17T12:51:01.475Z,79.09
2023-06-17T12:53:28.995Z,79.25
2023-06-17T12:55:56.566Z,79.57
2023-06-17T12:58:23.799Z,80.14
2023-06-17T13:00:50.361Z,78.53
2023-06-17T13:03:17.164Z,74.96
2023-06-17T13:05:43.787Z,75.59
2023-06-17T13:08:10.881Z,76.68
2023-06-17T13:10:37.467Z,76.87
2023-06-17T13:13:04.130Z,77.31
2023-06-17T13:15:30.798Z,77.77
2023-06-17T13:17:57.703Z,76.27
2023-06-17T13:20:25.108Z,76.38
2023-06-17T13:22:52.209Z,77.92
2023-06-17T13:25:18.786Z,76.11
2023-06-17T13:27:45.306Z,75.00
2023-06-17T13:30:12.645Z,74.72
2023-06-17T13:32:40.361Z,75.72
2023-06-17T13:35:07.608Z,77.90
2023-06-17T13:37:34.283Z,75.83
2023-06-17T13:40:00.988Z,71.41
2023-06-17T13:42:27.634Z,69.57
2023-06-17T13:44:54.337Z,69.84
2023-06-17T13:47:20.954Z,68.61
2023-06-17T13:49:47.552Z,67.82
2023-06-17T13:52:14.176Z,66.63
2023-06-17T13:54:40.772Z,67.96
2023-06-17T13:57:07.848Z,69.10
2023-06-17T13:59:36.059Z,68.79
2023-06-17T14:02:04.425Z,71.06
2023-06-17T14:04:31.045Z,69.54
2023-06-17T14:06:57.784Z,69.97
2023-06-17T14:09:24.423Z,69.56
2023-06-17T14:11:50.945Z,69.65
2023-06-17T14:14:17.635Z,70.51
2023-06-17T14:16:44.613Z,71.42
2023-06-17T14:19:11.713Z,70.09
2023-06-17T14:21:38.507Z,70.39
2023-06-17T14:24:09.515Z,69.67
2023-06-17T14:26:40.555Z,71.62
2023-06-17T14:29:09.442Z,71.15
2023-06-17T14:31:36.794Z,70.03
2023-06-17T14:34:03.764Z,69.71
2023-06-17T14:36:31.360Z,69.76
2023-06-17T14:39:00.126Z,70.09
2023-06-17T14:41:26.791Z,68.21
2023-06-17T14:43:53.204Z,67.85
2023-06-17T14:46:20.616Z,68.54
2023-06-17T14:48:47.355Z,67.17
2023-06-17T14:51:13.875Z,66.22
2023-06-17T14:53:40.438Z,67.41
2023-06-17T14:56:39.644Z,66.99
2023-06-17T14:59:07.279Z,66.33
2023-06-17T15:01:35.356Z,65.30
2023-06-17T15:04:02.236Z,66.26
2023-06-17T15:06:29.229Z,65.18
2023-06-17T15:09:23.384Z,64.20
2023-06-17T15:11:50.009Z,63.60
2023-06-17T15:14:16.500Z,63.81
2023-06-17T15:16:43.026Z,62.85
2023-06-17T15:19:09.794Z,61.68
2023-06-17T15:21:36.149Z,60.52
2023-06-17T15:24:03.119Z,59.79
2023-06-17T15:26:29.628Z,58.26
2023-06-17T15:28:56.150Z,57.38
2023-06-17T15:31:22.674Z,57.50
2023-06-17T15:33:49.182Z,56.65
2023-06-17T15:36:15.869Z,55.71
2023-06-17T15:38:42.574Z,54.31
2023-06-17T15:41:09.103Z,53.83
2023-06-17T15:43:35.456Z,53.58
2023-06-17T15:46:02.299Z,53.87
2023-06-17T15:48:29.143Z,54.04
2023-06-17T15:50:58.321Z,53.47
2023-06-17T15:53:24.790Z,54.20
2023-06-17T15:55:51.576Z,54.45
2023-06-17T15:58:18.355Z,53.20
2023-06-17T16:00:45.221Z,53.38
2023-06-17T16:03:13.079Z,52.29
2023-06-17T16:05:39.934Z,53.26
2023-06-17T16:08:06.567Z,52.89
2023-06-17T16:10:33.861Z,53.01
2023-06-17T16:13:00.336Z,52.43
2023-06-17T16:15:26.874Z,54.22
2023-06-17T16:17:53.251Z,54.71
2023-06-17T16:20:20.218Z,53.61
2023-06-17T16:22:48.358Z,52.97
2023-06-17T16:25:15.221Z,53.82
2023-06-17T16:27:41.727Z,54.92
2023-06-17T16:30:09.215Z,55.13
2023-06-17T16:32:35.870Z,55.21
2023-06-17T16:35:02.377Z,55.54
2023-06-17T16:37:28.926Z,56.13
2023-06-17T16:39:55.930Z,57.02
2023-06-17T16:42:22.461Z,56.96
2023-06-17T16:44:49.295Z,57.81
2023-06-17T16:47:16.981Z,58.62
2023-06-17T16:49:44.030Z,59.20
2023-06-17T16:52:10.861Z,58.93
2023-06-17T16:54:37.551Z,59.76
2023-06-17T16:57:05.383Z,60.43
2023-06-17T16:59:37.913Z,59.72
2023-06-17T17:02:05.780Z,59.81
2023-06-17T17:04:32.343Z,60.87
2023-06-17T17:06:59.666Z,60.17
2023-06-17T17:09:26.987Z,61.35
2023-06-17T17:11:54.096Z,61.68
2023-06-17T17:14:20.604Z,60.83
2023-06-17T17:16:47.492Z,59.42
2023-06-17T17:19:14.343Z,59.34
2023-06-17T17:21:41.005Z,60.27
2023-06-17T17:24:07.591Z,59.42
2023-06-17T17:26:34.237Z,59.46
2023-06-17T17:29:00.713Z,59.76
2023-06-17T17:31:27.297Z,59.16
2023-06-17T17:33:53.741Z,60.85
2023-06-17T17:36:20.560Z,60.17
2023-06-17T17:38:47.110Z,60.62
2023-06-17T17:41:13.748Z,60.22
2023-06-17T17:43:40.330Z,60.91
2023-06-17T17:46:07.941Z,61.10
2023-06-17T17:48:35.216Z,60.57
2023-06-17T17:51:02.316Z,61.62
2023-06-17T17:53:29.272Z,61.33
2023-06-17T17:55:56.261Z,60.70
2023-06-17T17:58:22.854Z,62.35
2023-06-17T18:00:49.315Z,60.14
2023-06-17T18:03:16.296Z,62.06
2023-06-17T18:05:42.890Z,62.86
2023-06-17T18:08:09.653Z,62.88
2023-06-17T18:10:36.578Z,64.44
2023-06-17T18:13:03.453Z,65.09
2023-06-17T18:15:29.952Z,62.42
2023-06-17T18:17:56.537Z,62.48
2023-06-17T18:20:23.517Z,62.33
2023-06-17T18:22:50.619Z,63.21
2023-06-17T18:25:17.517Z,65.22
2023-06-17T18:27:44.359Z,64.62
2023-06-17T18:30:11.625Z,64.69
2023-06-17T18:32:38.478Z,64.88
2023-06-17T18:35:05.505Z,65.38
2023-06-17T18:37:32.056Z,66.01
2023-06-17T18:39:58.891Z,66.50
2023-06-17T18:42:25.700Z,67.24
2023-06-17T18:44:52.160Z,68.51
2023-06-17T18:47:18.698Z,67.81
2023-06-17T18:49:45.214Z,68.94
2023-06-17T18:52:11.895Z,70.63
2023-06-17T18:54:38.342Z,71.42
2023-06-17T18:57:05.412Z,72.25
2023-06-17T18:59:32.405Z,72.80
2023-06-17T19:01:59.295Z,72.63
2023-06-17T19:04:25.989Z,73.71
2023-06-17T19:06:52.848Z,74.24
2023-06-17T19:09:19.413Z,75.56
2023-06-17T19:11:46.289Z,75.71
2023-06-17T19:14:12.721Z,75.31
2023-06-17T19:16:39.544Z,75.75
2023-06-17T19:19:06.199Z,75.50
2023-06-17T19:21:33.306Z,76.94
2023-06-17T19:23:59.865Z,77.02
2023-06-17T19:26:26.645Z,77.45
2023-06-17T19:28:53.887Z,78.44
2023-06-17T19:31:20.727Z,77.34
2023-06-17T19:33:47.467Z,78.46
2023-06-17T19:36:14.026Z,78.32
2023-06-17T19:38:40.502Z,78.23
2023-06-17T19:41:07.044Z,78.64
2023-06-17T19:43:33.815Z,78.90
2023-06-17T19:46:01.142Z,79.61
2023-06-17T19:48:27.807Z,80.26
2023-06-17T19:50:55.566Z,80.69
2023-06-17T19:53:24.048Z,80.56
2023-06-17T19:55:51.411Z,80.15
2023-06-17T19:58:18.667Z,80.60
2023-06-17T20:00:48.257Z,80.44
2023-06-17T20:03:14.976Z,80.35
2023-06-17T20:05:41.461Z,82.13
2023-06-17T20:08:08.469Z,82.92
2023-06-17T20:10:35.007Z,82.09
2023-06-17T20:13:03.696Z,82.88
2023-06-17T20:15:30.180Z,83.26
2023-06-17T20:17:57.083Z,83.29
2023-06-17T20:20:23.802Z,84.27
2023-06-17T20:22:50.954Z,84.06
2023-06-17T20:25:17.719Z,84.22
2023-06-17T20:27:44.246Z,84.29
2023-06-17T20:30:14.143Z,84.25
2023-06-17T20:32:42.026Z,83.96
2023-06-17T20:35:09.201Z,84.65
2023-06-17T20:37:35.702Z,84.90
2023-06-17T20:40:02.455Z,85.14
2023-06-17T20:42:28.949Z,85.85
2023-06-17T20:44:55.716Z,85.68
2023-06-17T20:47:22.826Z,85.63
2023-06-17T20:49:49.805Z,86.28
2023-06-17T20:52:16.318Z,86.00
2023-06-17T20:54:43.083Z,85.30
2023-06-17T20:57:09.931Z,86.54
2023-06-17T20:59:36.787Z,86.84
2023-06-17T21:02:03.640Z,86.60
2023-06-17T21:04:30.222Z,86.57
2023-06-17T21:06:57.109Z,86.59
2023-06-17T21:09:24.449Z,86.42
2023-06-17T21:11:50.975Z,86.16
2023-06-17T21:14:17.820Z,86.92
2023-06-17T21:16:44.539Z,86.44
2023-06-17T21:19:11.541Z,87.00
2023-06-17T21:21:38.272Z,87.36
2023-06-17T21:24:05.138Z,87.02
2023-06-17T21:26:31.792Z,87.92
2023-06-17T21:28:59.008Z,87.48
2023-06-17T21:31:25.640Z,88.30
2023-06-17T21:33:52.494Z,88.45
2023-06-17T21:36:19.064Z,88.89
2023-06-17T21:38:45.656Z,89.03
2023-06-17T21:41:12.397Z,88.67
2023-06-17T21:43:39.143Z,89.22
2023-06-17T21:46:06.080Z,88.39
2023-06-17T21:48:32.771Z,89.39
2023-06-17T21:50:59.421Z,89.66
2023-06-17T21:53:26.004Z,89.84
2023-06-17T21:55:54.164Z,89.95
2023-06-17T21:58:20.658Z,90.25
2023-06-17T22:00:47.225Z,89.30
2023-06-17T22:03:14.116Z,89.55
2023-06-17T22:05:41.053Z,89.89
2023-06-17T22:08:09.614Z,89.67
2023-06-17T22:10:36.529Z,90.35
2023-06-17T22:13:03.006Z,90.95
2023-06-17T22:15:29.885Z,90.78
2023-06-17T22:17:56.620Z,90.67
2023-06-17T22:20:23.704Z,91.28
2023-06-17T22:22:50.673Z,90.93
2023-06-17T22:25:17.617Z,90.56
2023-06-17T22:27:44.228Z,91.31
2023-06-17T22:30:11.063Z,90.69
2023-06-17T22:32:37.671Z,90.39
2023-06-17T22:35:05.239Z,90.89
2023-06-17T22:37:32.055Z,91.28
2023-06-17T22:39:59.807Z,91.43
2023-06-17T22:42:27.150Z,92.03
2023-06-17T22:44:54.086Z,90.75
2023-06-17T22:47:23.411Z,91.88
2023-06-17T22:49:50.209Z,91.87
2023-06-17T22:52:16.966Z,92.00
2023-06-17T22:54:43.687Z,91.12
2023-06-17T22:57:10.255Z,92.30
2023-06-17T22:59:37.003Z,93.21
2023-06-17T23:02:05.767Z,92.77
2023-06-17T23:04:32.600Z,92.44
2023-06-17T23:07:00.173Z,92.36
2023-06-17T23:09:27.008Z,92.20
2023-06-17T23:11:54.149Z,92.78
2023-06-17T23:14:20.913Z,92.92
2023-06-17T23:16:47.771Z,92.55
2023-06-17T23:19:14.671Z,92.67
2023-06-17T23:21:41.200Z,92.10
2023-06-17T23:24:08.442Z,92.78
2023-06-17T23:26:34.985Z,93.14
2023-06-17T23:29:01.960Z,92.92
2023-06-17T23:31:28.780Z,92.97
2023-06-17T23:33:55.757Z,92.83
2023-06-17T23:36:22.777Z,93.35
2023-06-17T23:38:49.617Z,93.49
2023-06-17T23:41:16.939Z,93.67
2023-06-17T23:43:43.712Z,93.89
2023-06-17T23:46:10.283Z,92.80
2023-06-17T23:48:36.835Z,92.31
2023-06-17T23:51:05.740Z,93.14
2023-06-17T23:53:32.615Z,93.19
2023-06-17T23:55:59.151Z,94.35
2023-06-17T23:58:25.996Z,94.14
